createdAt,value
2022-11-12T00:01:45.119Z,99296.06
2022-11-12T01:19:00.147Z,99222.19
2022-11-12T01:26:09.614Z,99219.31
2022-11-12T01:33:07.720Z,99201.19
2022-11-12T01:48:56.053Z,99213.75
2022-11-12T01:55:34.607Z,99194.13
2022-11-12T01:58:46.296Z,99203.41
2022-11-12T02:02:06.388Z,99196.59
2022-11-12T02:05:17.285Z,99206.06
2022-11-12T02:14:23.467Z,99196.34
2022-11-12T02:18:15.503Z,99183.38
2022-11-12T02:21:53.715Z,99172.63
2022-11-12T02:40:37.988Z,99149.75
2022-11-12T02:53:26.523Z,99145.41
2022-11-12T02:57:28.802Z,99132.59
2022-11-12T03:00:48.403Z,99141.69
2022-11-12T03:20:50.536Z,99130.91
2022-11-12T03:23:39.786Z,99114.19
2022-11-12T03:26:40.226Z,99112.53
2022-11-12T03:33:03.521Z,99107.38
2022-11-12T03:40:14.846Z,99091.69
2022-11-12T03:43:14.451Z,99081.38
2022-11-12T03:46:44.174Z,99080.97
2022-11-12T03:49:56.111Z,99078.88
2022-11-12T03:52:57.327Z,99081.72
2022-11-12T03:55:44.845Z,99086.91
2022-11-12T03:58:45.855Z,99077.84
2022-11-12T04:01:34.671Z,99091.25
2022-11-12T04:04:22.791Z,99083.81
2022-11-12T04:07:30.601Z,99096.19
2022-11-12T04:10:23.240Z,99078.81
2022-11-12T04:13:33.502Z,99086.44
2022-11-12T04:21:22.197Z,99062.28
2022-11-12T04:37:02.745Z,99043.06
2022-11-12T05:02:34.357Z,99058.53
2022-11-12T05:05:31.099Z,99047.59
2022-11-12T05:08:50.761Z,99035.22
2022-11-12T05:16:15.515Z,99030.84
2022-11-12T05:22:40.708Z,99049.63
2022-11-12T05:25:37.500Z,99026.53
2022-11-12T05:33:20.147Z,99041.94
2022-11-12T05:36:37.130Z,99022.78
2022-11-12T05:40:26.951Z,99031.59
2022-11-12T05:50:51.331Z,99026.13
2022-11-12T05:51:17.768Z,99012.94
2022-11-12T05:54:12.719Z,99009.00
2022-11-12T05:57:36.182Z,99010.72
2022-11-12T06:00:49.011Z,99015.03
2022-11-12T06:08:03.093Z,99024.28
2022-11-12T06:11:09.763Z,99025.03
2022-11-12T06:14:14.835Z,99032.66
2022-11-12T06:20:29.425Z,99010.72
2022-11-12T06:23:56.205Z,99035.50
2022-11-12T06:30:42.288Z,99013.03
2022-11-12T06:33:35.159Z,99023.97
2022-11-12T06:40:03.823Z,99003.16
2022-11-12T06:56:24.311Z,98999.34
2022-11-12T07:00:30.577Z,98990.88
2022-11-12T07:03:02.615Z,98985.25
2022-11-12T07:06:09.299Z,98972.19
2022-11-12T07:12:55.325Z,98957.50
2022-11-12T07:16:07.157Z,98960.88
2022-11-12T07:20:48.921Z,98953.34
2022-11-12T07:25:47.221Z,98945.75
2022-11-12T07:35:53.437Z,98938.84
2022-11-12T07:38:48.987Z,98927.63
2022-11-12T07:46:35.958Z,98895.31
2022-11-12T07:49:47.317Z,98895.66
2022-11-12T08:05:42.594Z,98889.13
2022-11-12T08:09:09.017Z,98885.41
2022-11-12T08:11:55.770Z,98897.34
2022-11-12T08:18:19.979Z,98873.56
2022-11-12T08:21:13.096Z,98864.81
2022-11-12T08:23:59.045Z,98858.53
2022-11-12T08:26:47.751Z,98851.41
2022-11-12T08:29:33.630Z,98850.59
2022-11-12T08:32:36.210Z,98840.41
2022-11-12T08:35:33.512Z,98836.31
2022-11-12T08:38:30.084Z,98835.72
2022-11-12T08:41:22.722Z,98823.22
2022-11-12T08:44:18.368Z,98811.53
2022-11-12T08:47:23.519Z,98810.81
2022-11-12T08:50:12.629Z,98805.44
2022-11-12T08:53:05.167Z,98816.56
2022-11-12T08:56:13.771Z,98800.19
2022-11-12T08:59:20.626Z,98802.88
2022-11-12T09:02:14.035Z,98797.63
2022-11-12T09:05:06.841Z,98787.13
2022-11-12T09:08:19.395Z,98788.53
2022-11-12T09:11:16.733Z,98768.03
2022-11-12T09:14:30.111Z,98764.66
2022-11-12T09:24:49.731Z,98743.75
2022-11-12T09:27:48.157Z,98741.16
2022-11-12T09:30:36.655Z,98737.66
2022-11-12T09:34:13.690Z,98729.13
2022-11-12T09:37:02.517Z,98715.56
2022-11-12T09:39:48.562Z,98685.66
2022-11-12T09:42:34.904Z,98697.00
2022-11-12T09:45:26.505Z,98708.22
2022-11-12T09:48:43.848Z,98689.97
2022-11-12T09:51:36.150Z,98684.59
2022-11-12T09:54:35.671Z,98672.34
2022-11-12T09:58:13.362Z,98665.78
2022-11-12T10:01:26.072Z,98643.81
2022-11-12T10:04:17.837Z,98647.78
2022-11-12T10:08:08.872Z,98636.59
2022-11-12T10:14:56.633Z,98641.13
2022-11-12T10:17:45.798Z,98625.81
2022-11-12T10:21:00.578Z,98607.94
2022-11-12T10:23:47.284Z,98626.84
2022-11-12T10:26:38.387Z,98603.34
2022-11-12T10:30:03.964Z,98653.94
2022-11-12T10:33:03.707Z,98618.28
2022-11-12T10:35:51.381Z,98611.19
2022-11-12T10:38:37.088Z,98624.06
2022-11-12T10:41:29.288Z,98598.47
2022-11-12T10:44:25.614Z,98615.88
2022-11-12T10:47:44.411Z,98604.56
2022-11-12T10:54:06.641Z,98622.56
2022-11-12T10:56:55.674Z,98614.72
2022-11-12T10:59:45.927Z,98609.00
2022-11-12T11:02:47.615Z,98587.50
2022-11-12T11:05:51.984Z,98584.34
2022-11-12T11:08:48.609Z,98597.78
2022-11-12T11:12:09.424Z,98581.88
2022-11-12T11:15:14.554Z,98589.94
2022-11-12T11:18:03.731Z,98560.63
2022-11-12T11:21:25.486Z,98558.66
2022-11-12T11:25:07.294Z,98548.22
2022-11-12T11:28:20.608Z,98539.84
2022-11-12T11:31:20.823Z,98535.63
2022-11-12T11:34:34.336Z,98514.38
2022-11-12T11:37:27.607Z,98505.50
2022-11-12T11:40:31.747Z,98503.38
2022-11-12T11:43:23.478Z,98490.19
2022-11-12T11:46:19.644Z,98488.28
2022-11-12T11:49:23.982Z,98475.94
2022-11-12T11:52:20.782Z,98474.84
2022-11-12T11:55:16.104Z,98476.75
2022-11-12T12:01:44.686Z,98456.63
2022-11-12T12:04:33.416Z,98459.31
2022-11-12T12:07:26.520Z,98427.06
2022-11-12T12:10:12.309Z,98407.44
2022-11-12T12:13:07.602Z,98434.53
2022-11-12T12:15:56.587Z,98430.56
2022-11-12T12:18:51.261Z,98422.75
2022-11-12T12:21:39.254Z,98417.69
2022-11-12T12:24:33.559Z,98422.00
2022-11-12T12:27:23.890Z,98416.16
2022-11-12T12:30:20.167Z,98391.97
2022-11-12T12:33:15.542Z,98418.59
2022-11-12T12:36:13.811Z,98414.38
2022-11-12T12:39:09.289Z,98385.84
2022-11-12T12:42:03.262Z,98397.16
2022-11-12T12:45:01.431Z,98388.59
2022-11-12T12:47:52.715Z,98369.56
2022-11-12T12:50:39.079Z,98356.94
2022-11-12T12:53:37.586Z,98366.13
2022-11-12T12:56:31.661Z,98372.91
2022-11-12T12:59:21.125Z,98349.28
2022-11-12T13:02:16.048Z,98341.78
2022-11-12T13:05:09.293Z,98348.00
2022-11-12T13:07:54.988Z,98339.94
2022-11-12T13:10:50.489Z,98334.06
2022-11-12T13:16:50.742Z,98326.94
2022-11-12T13:19:55.727Z,98317.00
2022-11-12T13:22:56.216Z,98335.34
2022-11-12T13:25:42.279Z,98317.63
2022-11-12T13:28:30.962Z,98308.25
2022-11-12T13:31:33.442Z,98289.41
2022-11-12T13:34:27.916Z,98301.56
2022-11-12T13:37:19.182Z,98304.00
2022-11-12T13:40:05.048Z,98283.06
2022-11-12T13:42:54.039Z,98294.69
2022-11-12T13:45:45.222Z,98294.13
2022-11-12T13:48:32.129Z,98280.50
2022-11-12T13:51:26.662Z,98296.06
2022-11-12T13:54:28.107Z,98289.63
2022-11-12T13:57:27.389Z,98303.06
2022-11-12T14:00:19.495Z,98296.13
2022-11-12T14:03:14.116Z,98306.63
2022-11-12T14:06:02.765Z,98308.84
2022-11-12T14:08:49.894Z,98307.25
2022-11-12T14:15:58.742Z,98312.41
2022-11-12T14:19:02.868Z,98295.97
2022-11-12T14:25:02.375Z,98303.88
2022-11-12T14:27:49.613Z,98293.34
2022-11-12T14:30:35.401Z,98299.81
2022-11-12T14:33:26.750Z,98307.88
2022-11-12T14:36:19.592Z,98289.03
2022-11-12T14:39:05.923Z,98304.44
2022-11-12T14:41:56.924Z,98307.94
2022-11-12T14:44:45.766Z,98310.41
2022-11-12T14:47:40.121Z,98323.59
2022-11-12T14:50:40.259Z,98320.66
2022-11-12T15:00:07.961Z,98298.38
2022-11-12T15:02:59.738Z,98308.88
2022-11-12T15:06:21.509Z,98303.25
2022-11-12T15:09:10.685Z,98318.88
2022-11-12T15:12:00.667Z,98318.38
2022-11-12T15:14:46.759Z,98320.03
2022-11-12T15:17:33.694Z,98307.59
2022-11-12T15:20:25.094Z,98316.53
2022-11-12T15:23:18.093Z,98308.69
2022-11-12T15:26:14.338Z,98317.56
2022-11-12T15:29:25.661Z,98315.69
2022-11-12T15:32:14.033Z,98304.16
2022-11-12T15:35:17.535Z,98305.47
2022-11-12T15:38:05.243Z,98298.78
2022-11-12T15:44:50.457Z,98295.84
2022-11-12T15:47:41.866Z,98268.34
2022-11-12T15:50:27.830Z,98317.38
2022-11-12T15:53:31.236Z,98296.41
2022-11-12T15:59:22.411Z,98290.84
2022-11-12T16:02:19.951Z,98315.13
2022-11-12T16:05:09.465Z,98305.75
2022-11-12T16:08:20.645Z,98313.34
2022-11-12T16:11:26.177Z,98289.56
2022-11-12T16:14:13.216Z,98290.72
2022-11-12T16:16:59.370Z,98270.22
2022-11-12T16:19:46.162Z,98294.47
2022-11-12T16:22:32.289Z,98286.63
2022-11-12T16:25:24.451Z,98284.66
2022-11-12T16:30:07.664Z,98288.97
2022-11-12T16:32:02.622Z,98312.22
2022-11-12T16:34:49.638Z,98313.88
2022-11-12T16:37:36.528Z,98313.06
2022-11-12T16:40:23.591Z,98327.91
2022-11-12T16:46:42.611Z,98301.78
2022-11-12T16:49:37.321Z,98288.56
2022-11-12T16:52:42.954Z,98311.53
2022-11-12T16:55:36.304Z,98316.94
2022-11-12T16:58:23.262Z,98314.63
2022-11-12T17:01:12.632Z,98303.56
2022-11-12T17:04:03.125Z,98303.00
2022-11-12T17:07:11.703Z,98312.97
2022-11-12T17:09:58.431Z,98305.69
2022-11-12T17:15:54.560Z,98305.63
2022-11-12T17:18:42.944Z,98310.38
2022-11-12T17:21:34.754Z,98319.56
2022-11-12T17:24:34.679Z,98312.59
2022-11-12T17:27:28.396Z,98315.28
2022-11-12T17:30:17.056Z,98320.94
2022-11-12T17:33:03.175Z,98334.53
2022-11-12T17:35:55.254Z,98334.59
2022-11-12T17:39:29.104Z,98338.06
2022-11-12T17:42:43.922Z,98349.03
2022-11-12T17:45:39.072Z,98353.06
2022-11-12T17:48:46.776Z,98354.13
2022-11-12T17:51:35.314Z,98346.09
2022-11-12T17:54:27.439Z,98345.81
2022-11-12T17:57:38.658Z,98354.75
2022-11-12T18:01:00.981Z,98365.22
2022-11-12T18:04:06.250Z,98370.59
2022-11-12T18:07:04.767Z,98361.47
2022-11-12T18:09:53.948Z,98374.47
2022-11-12T18:12:42.042Z,98358.63
2022-11-12T18:15:28.174Z,98372.94
2022-11-12T18:18:23.706Z,98365.31
2022-11-12T18:21:15.365Z,98348.84
2022-11-12T18:24:16.354Z,98366.53
2022-11-12T18:27:05.689Z,98354.66
2022-11-12T18:29:51.825Z,98365.88
2022-11-12T18:32:39.520Z,98389.88
2022-11-12T18:36:05.716Z,98354.09
2022-11-12T18:39:27.035Z,98364.44
2022-11-12T18:42:23.814Z,98351.75
2022-11-12T18:45:14.618Z,98360.69
2022-11-12T18:52:08.202Z,98365.69
2022-11-12T18:58:30.551Z,98372.34
2022-11-12T18:59:23.831Z,98371.25
2022-11-12T19:01:24.163Z,98373.25
2022-11-12T19:04:15.132Z,98367.28
2022-11-12T19:07:09.509Z,98380.44
2022-11-12T19:10:01.735Z,98367.09
2022-11-12T19:13:16.213Z,98372.16
2022-11-12T19:16:04.570Z,98367.22
2022-11-12T19:22:57.121Z,98370.94
2022-11-12T19:25:50.170Z,98391.06
2022-11-12T19:28:48.041Z,98387.91
2022-11-12T19:45:08.165Z,98421.56
2022-11-12T19:51:26.284Z,98417.88
2022-11-12T19:54:13.266Z,98437.53
2022-11-12T20:00:26.222Z,98431.66
2022-11-12T20:03:26.807Z,98437.38
2022-11-12T20:16:02.945Z,98447.56
2022-11-12T20:29:24.513Z,98429.28
2022-11-12T20:32:31.697Z,98446.19
2022-11-12T20:35:29.984Z,98441.63
2022-11-12T20:38:31.888Z,98417.38
2022-11-12T20:41:38.876Z,98438.13
2022-11-12T20:44:33.115Z,98437.38
2022-11-12T20:47:31.907Z,98420.56
2022-11-12T20:50:56.563Z,98412.78
2022-11-12T20:53:59.463Z,98435.72
2022-11-12T20:56:53.854Z,98435.41
2022-11-12T20:59:56.696Z,98427.97
2022-11-12T21:02:45.778Z,98440.97
2022-11-12T21:05:34.283Z,98423.19
2022-11-12T21:08:38.610Z,98394.00
2022-11-12T21:11:34.247Z,98427.84
2022-11-12T21:14:19.801Z,98436.44
2022-11-12T21:17:08.605Z,98409.69
2022-11-12T21:19:55.065Z,98407.66
2022-11-12T21:22:47.521Z,98405.78
2022-11-12T21:25:42.313Z,98429.97
2022-11-12T21:28:28.838Z,98425.53
2022-11-12T21:31:18.398Z,98409.84
2022-11-12T21:34:07.874Z,98419.31
2022-11-12T21:36:58.436Z,98418.19
2022-11-12T21:39:49.682Z,98424.75
2022-11-12T21:45:49.613Z,98438.56
2022-11-12T21:48:36.338Z,98443.72
2022-11-12T21:51:28.572Z,98447.78
2022-11-12T21:54:15.645Z,98461.72
2022-11-12T21:57:02.189Z,98453.00
2022-11-12T21:59:50.532Z,98428.13
2022-11-12T22:02:36.299Z,98448.13
2022-11-12T22:05:36.963Z,98454.88
2022-11-12T22:08:39.959Z,98454.00
2022-11-12T22:11:36.543Z,98441.03
2022-11-12T22:14:26.167Z,98437.22
2022-11-12T22:17:38.404Z,98459.97
2022-11-12T22:20:30.505Z,98469.63
2022-11-12T22:23:26.211Z,98500.88
2022-11-12T22:26:15.804Z,98462.16
2022-11-12T22:32:39.122Z,98464.75
2022-11-12T22:36:12.902Z,98475.41
2022-11-12T22:39:53.354Z,98470.91
2022-11-12T22:42:58.307Z,98468.13
2022-11-12T22:50:03.958Z,98454.59
2022-11-12T22:53:06.365Z,98471.69
2022-11-12T22:56:27.080Z,98459.91
2022-11-12T22:59:47.860Z,98458.19
2022-11-12T23:02:44.809Z,98475.03
2022-11-12T23:05:59.336Z,98466.66
2022-11-12T23:09:01.306Z,98487.72
2022-11-12T23:12:18.489Z,98479.28
2022-11-12T23:15:08.712Z,98483.25
2022-11-12T23:18:16.920Z,98475.41
2022-11-12T23:21:22.545Z,98469.53
2022-11-12T23:24:09.071Z,98469.94
2022-11-12T23:27:05.510Z,98481.97
2022-11-12T23:29:53.629Z,98487.03
2022-11-12T23:36:14.051Z,98487.53
2022-11-12T23:39:04.236Z,98476.28
2022-11-12T23:41:50.946Z,98488.00
2022-11-12T23:44:51.990Z,98490.59
2022-11-12T23:48:12.699Z,98461.28
2022-11-12T23:51:28.284Z,98494.84
2022-11-12T23:54:14.379Z,98482.38
2022-11-12T23:57:04.461Z,98484.75
